createdAt,value
2018-03-31T00:01:36.542Z,58.44
2018-03-31T00:04:03.626Z,58.68
2018-03-31T00:06:30.646Z,58.22
2018-03-31T00:08:57.662Z,58.05
2018-03-31T00:11:24.706Z,58.18
2018-03-31T00:13:51.731Z,58.13
2018-03-31T00:16:18.761Z,58.23
2018-03-31T00:18:45.783Z,58.03
2018-03-31T00:21:12.868Z,57.48
2018-03-31T00:23:39.914Z,57.45
2018-03-31T00:26:06.939Z,58.37
2018-03-31T00:28:34.032Z,57.74
2018-03-31T00:31:01.049Z,58.05
2018-03-31T00:33:28.246Z,58.13
2018-03-31T00:35:55.490Z,58.08
2018-03-31T00:38:22.597Z,57.81
2018-03-31T00:40:49.614Z,58.05
2018-03-31T00:43:16.837Z,57.90
2018-03-31T00:45:43.870Z,57.97
2018-03-31T00:48:10.885Z,58.03
2018-03-31T00:50:37.929Z,58.14
2018-03-31T00:53:04.958Z,58.34
2018-03-31T00:55:32.053Z,58.77
2018-03-31T00:57:59.098Z,58.89
2018-03-31T01:00:26.122Z,58.51
2018-03-31T01:02:53.152Z,58.10
2018-03-31T01:05:21.114Z,57.80
2018-03-31T01:07:48.143Z,57.98
2018-03-31T01:10:15.417Z,58.58
2018-03-31T01:12:42.734Z,58.20
2018-03-31T01:15:09.928Z,58.10
2018-03-31T01:17:37.147Z,57.69
2018-03-31T01:20:04.174Z,58.58
2018-03-31T01:22:31.195Z,58.79
2018-03-31T01:24:58.222Z,59.34
2018-03-31T01:27:25.320Z,58.11
2018-03-31T01:29:52.647Z,58.27
2018-03-31T01:32:19.666Z,58.52
2018-03-31T01:34:46.681Z,58.07
2018-03-31T01:37:13.713Z,57.53
2018-03-31T01:39:40.790Z,57.98
2018-03-31T01:42:08.026Z,57.67
2018-03-31T01:44:35.243Z,57.66
2018-03-31T01:47:02.269Z,57.51
2018-03-31T01:49:29.437Z,57.24
2018-03-31T01:51:56.470Z,57.17
2018-03-31T01:54:23.706Z,57.35
2018-03-31T01:56:50.809Z,56.83
2018-03-31T01:59:17.827Z,56.88
2018-03-31T02:01:44.842Z,56.79
2018-03-31T02:04:11.867Z,56.28
2018-03-31T02:06:38.894Z,56.58
2018-03-31T02:09:05.918Z,56.98
2018-03-31T02:11:33.086Z,57.16
2018-03-31T02:14:00.336Z,56.96
2018-03-31T02:16:27.442Z,57.10
2018-03-31T02:18:54.466Z,57.56
2018-03-31T02:21:21.490Z,57.84
2018-03-31T02:23:48.506Z,58.29
2018-03-31T02:26:15.535Z,58.17
2018-03-31T02:28:42.579Z,58.40
2018-03-31T02:31:09.686Z,58.60
2018-03-31T02:33:36.862Z,58.84
2018-03-31T02:36:04.083Z,59.29
2018-03-31T02:38:31.127Z,59.58
2018-03-31T02:40:58.147Z,60.21
2018-03-31T02:43:25.178Z,60.16
2018-03-31T02:45:52.217Z,59.82
2018-03-31T02:48:19.311Z,60.37
2018-03-31T02:50:46.576Z,60.20
2018-03-31T02:53:13.770Z,60.16
2018-03-31T02:55:41.010Z,59.73
2018-03-31T02:58:08.032Z,59.74
2018-03-31T03:00:35.058Z,59.81
2018-03-31T03:03:02.236Z,59.33
2018-03-31T03:05:29.574Z,58.48
2018-03-31T03:07:56.770Z,58.54
2018-03-31T03:10:23.791Z,58.91
2018-03-31T03:12:51.022Z,59.34
2018-03-31T03:15:18.046Z,59.72
2018-03-31T03:17:45.354Z,59.49
2018-03-31T03:20:12.403Z,58.92
2018-03-31T03:22:39.588Z,59.18
2018-03-31T03:25:06.618Z,59.50
2018-03-31T03:27:33.709Z,59.10
2018-03-31T03:30:00.798Z,58.90
2018-03-31T03:32:27.841Z,58.58
2018-03-31T03:34:54.865Z,59.14
2018-03-31T03:37:21.907Z,58.64
2018-03-31T03:39:49.062Z,58.59
2018-03-31T03:42:16.315Z,58.99
2018-03-31T03:44:43.531Z,59.29
2018-03-31T03:47:10.559Z,59.52
2018-03-31T03:49:37.764Z,59.44
2018-03-31T03:52:04.980Z,58.23
2018-03-31T03:54:32.198Z,58.94
2018-03-31T03:56:59.288Z,58.45
2018-03-31T03:59:26.533Z,58.45
2018-03-31T04:01:53.637Z,58.79
2018-03-31T04:04:20.826Z,57.94
2018-03-31T04:06:48.077Z,58.33
2018-03-31T04:09:15.138Z,57.91
2018-03-31T04:11:42.196Z,58.19
2018-03-31T04:14:09.282Z,59.68
2018-03-31T04:16:36.302Z,59.84
2018-03-31T04:19:03.526Z,59.96
2018-03-31T04:21:30.666Z,60.78
2018-03-31T04:23:57.686Z,61.40
2018-03-31T04:26:24.876Z,61.45
2018-03-31T04:28:52.003Z,61.75
2018-03-31T04:31:19.340Z,61.62
2018-03-31T04:33:46.556Z,60.77
2018-03-31T04:36:13.773Z,61.70
2018-03-31T04:38:40.850Z,62.14
2018-03-31T04:41:08.107Z,62.48
2018-03-31T04:43:35.141Z,62.00
2018-03-31T04:46:02.166Z,61.08
2018-03-31T04:48:29.259Z,59.53
2018-03-31T04:50:56.297Z,59.50
2018-03-31T04:53:23.349Z,58.42
2018-03-31T04:55:50.601Z,57.92
2018-03-31T04:58:17.624Z,57.84
2018-03-31T05:00:44.840Z,57.81
2018-03-31T05:03:11.894Z,57.95
2018-03-31T05:05:39.015Z,57.09
2018-03-31T05:08:06.041Z,57.32
2018-03-31T05:10:33.298Z,57.48
2018-03-31T05:13:00.591Z,57.54
2018-03-31T05:15:27.616Z,56.55
2018-03-31T05:17:54.761Z,56.23
2018-03-31T05:20:21.790Z,56.04
2018-03-31T05:22:49.082Z,54.64
2018-03-31T05:25:16.105Z,53.51
2018-03-31T05:27:43.414Z,52.73
2018-03-31T05:30:10.453Z,51.63
2018-03-31T05:32:37.490Z,50.24
2018-03-31T05:35:04.760Z,47.77
2018-03-31T05:37:31.854Z,44.56
2018-03-31T05:39:59.252Z,43.45
2018-03-31T05:42:26.275Z,43.03
2018-03-31T05:44:53.297Z,41.63
2018-03-31T05:47:20.334Z,41.09
2018-03-31T05:49:47.354Z,42.50
2018-03-31T05:52:14.382Z,42.96
2018-03-31T05:54:41.404Z,43.09
2018-03-31T05:57:08.426Z,43.17
2018-03-31T05:59:35.446Z,44.10
2018-03-31T06:02:02.465Z,44.51
2018-03-31T06:04:29.508Z,44.79
2018-03-31T06:06:56.536Z,44.94
2018-03-31T06:09:23.662Z,45.52
2018-03-31T06:11:50.684Z,45.18
2018-03-31T06:14:17.886Z,44.68
2018-03-31T06:16:45.135Z,44.40
2018-03-31T06:19:12.178Z,43.26
2018-03-31T06:21:39.201Z,40.97
2018-03-31T06:24:06.232Z,38.42
2018-03-31T06:26:33.501Z,36.14
2018-03-31T06:29:00.548Z,33.87
2018-03-31T06:31:27.566Z,31.77
2018-03-31T06:33:54.598Z,31.76
2018-03-31T06:36:21.619Z,33.34
2018-03-31T06:38:48.877Z,35.43
2018-03-31T06:41:16.092Z,36.23
2018-03-31T06:43:43.301Z,35.09
2018-03-31T06:46:10.526Z,32.40
2018-03-31T06:48:37.842Z,31.46
2018-03-31T06:51:05.059Z,29.09
2018-03-31T06:53:32.114Z,26.16
2018-03-31T06:55:59.161Z,23.99
2018-03-31T06:58:26.407Z,22.47
2018-03-31T07:00:53.724Z,22.07
2018-03-31T07:03:20.763Z,22.28
2018-03-31T07:05:47.782Z,22.05
2018-03-31T07:08:14.821Z,22.81
2018-03-31T07:10:41.846Z,23.45
2018-03-31T07:13:08.874Z,23.97
2018-03-31T07:15:36.120Z,25.55
2018-03-31T07:18:03.208Z,25.96
2018-03-31T07:20:30.444Z,25.06
2018-03-31T07:22:57.668Z,24.19
2018-03-31T07:25:24.701Z,24.57
2018-03-31T07:27:51.730Z,23.38
2018-03-31T07:30:18.807Z,23.42
2018-03-31T07:32:45.830Z,24.55
2018-03-31T07:35:12.908Z,25.82
2018-03-31T07:37:39.922Z,25.72
2018-03-31T07:40:07.090Z,24.95
2018-03-31T07:42:34.272Z,25.32
2018-03-31T07:45:01.515Z,25.10
2018-03-31T07:47:28.542Z,25.64
2018-03-31T07:49:55.564Z,26.94
2018-03-31T07:52:22.638Z,27.88
2018-03-31T07:54:49.755Z,28.99
2018-03-31T07:57:16.766Z,27.90
2018-03-31T07:59:43.795Z,27.19
2018-03-31T08:02:10.818Z,26.69
2018-03-31T08:04:37.962Z,26.45
2018-03-31T08:07:05.120Z,26.15
2018-03-31T08:09:32.186Z,27.15
2018-03-31T08:11:59.202Z,28.18
2018-03-31T08:14:26.218Z,27.58
2018-03-31T08:16:53.420Z,27.95
2018-03-31T08:19:20.439Z,26.23
2018-03-31T08:21:47.471Z,25.93
2018-03-31T08:24:14.668Z,25.56
2018-03-31T08:26:41.985Z,25.04
2018-03-31T08:29:09.006Z,23.81
2018-03-31T08:31:36.221Z,23.57
2018-03-31T08:34:03.255Z,24.36
2018-03-31T08:36:30.282Z,24.13
2018-03-31T08:38:57.314Z,23.52
2018-03-31T08:41:24.338Z,23.26
2018-03-31T08:43:51.463Z,23.76
2018-03-31T08:46:18.724Z,23.02
2018-03-31T08:48:45.752Z,23.51
2018-03-31T08:51:12.787Z,23.70
2018-03-31T08:53:39.806Z,23.12
2018-03-31T08:56:07.078Z,21.96
2018-03-31T08:58:34.294Z,21.09
2018-03-31T09:01:01.362Z,19.70
2018-03-31T09:03:28.627Z,21.68
2018-03-31T09:05:55.647Z,21.11
2018-03-31T09:08:22.859Z,20.37
2018-03-31T09:10:50.032Z,20.03
2018-03-31T09:13:17.058Z,20.40
2018-03-31T09:15:44.306Z,21.74
2018-03-31T09:18:11.370Z,21.28
2018-03-31T09:20:38.386Z,21.03
2018-03-31T09:23:05.721Z,20.79
2018-03-31T09:25:32.763Z,20.66
2018-03-31T09:27:59.777Z,21.15
2018-03-31T09:30:26.798Z,21.90
2018-03-31T09:32:53.836Z,22.37
2018-03-31T09:35:20.922Z,23.41
2018-03-31T09:37:47.946Z,23.90
2018-03-31T09:40:14.970Z,24.40
2018-03-31T09:42:42.156Z,24.79
2018-03-31T09:45:09.177Z,25.28
2018-03-31T09:47:36.300Z,25.77
2018-03-31T09:50:03.533Z,24.63
2018-03-31T09:52:30.626Z,24.54
2018-03-31T09:54:57.867Z,25.62
2018-03-31T09:57:24.881Z,25.17
2018-03-31T09:59:51.902Z,25.19
2018-03-31T10:02:19.295Z,24.66
2018-03-31T10:04:46.507Z,24.19
2018-03-31T10:07:13.593Z,24.23
2018-03-31T10:09:40.863Z,22.65
2018-03-31T10:12:08.079Z,23.14
2018-03-31T10:14:35.095Z,21.71
2018-03-31T10:17:02.118Z,22.07
2018-03-31T10:19:29.134Z,22.82
2018-03-31T10:21:56.172Z,24.44
2018-03-31T10:24:23.197Z,24.26
2018-03-31T10:26:50.474Z,24.47
2018-03-31T10:29:17.528Z,22.63
2018-03-31T10:31:44.538Z,23.04
2018-03-31T10:34:11.822Z,22.10
2018-03-31T10:36:38.917Z,20.29
2018-03-31T10:39:05.947Z,19.69
2018-03-31T10:41:32.971Z,20.21
2018-03-31T10:44:00.046Z,20.66
2018-03-31T10:46:27.088Z,23.05
2018-03-31T10:48:54.111Z,21.93
2018-03-31T10:51:21.138Z,22.37
2018-03-31T10:53:48.164Z,23.30
2018-03-31T10:56:15.242Z,24.48
2018-03-31T10:58:42.258Z,24.24
2018-03-31T11:01:09.338Z,23.32
2018-03-31T11:03:36.351Z,23.28
2018-03-31T11:06:03.365Z,22.98
2018-03-31T11:08:30.646Z,22.52
2018-03-31T11:10:57.861Z,21.24
2018-03-31T11:13:24.894Z,20.70
2018-03-31T11:15:51.906Z,19.94
2018-03-31T11:18:19.202Z,20.18
2018-03-31T11:20:46.829Z,19.48
2018-03-31T11:23:14.002Z,19.39
2018-03-31T11:25:41.026Z,20.59
2018-03-31T11:28:08.048Z,20.06
2018-03-31T11:30:35.293Z,20.13
2018-03-31T11:33:02.387Z,21.13
2018-03-31T11:35:29.467Z,21.33
2018-03-31T11:37:56.640Z,22.37
2018-03-31T11:40:23.665Z,24.18
2018-03-31T11:42:50.879Z,24.45
2018-03-31T11:45:18.054Z,24.36
2018-03-31T11:47:45.086Z,24.80
2018-03-31T11:50:12.103Z,25.37
2018-03-31T11:52:39.339Z,24.59
2018-03-31T11:55:06.361Z,24.79
2018-03-31T11:57:33.380Z,25.37
2018-03-31T12:00:00.406Z,24.89
2018-03-31T12:02:27.603Z,25.70
2018-03-31T12:04:54.636Z,25.48
2018-03-31T12:07:21.833Z,24.71
2018-03-31T12:09:48.931Z,25.43
2018-03-31T12:12:16.166Z,25.18
2018-03-31T12:14:43.385Z,26.07
2018-03-31T12:17:10.599Z,25.91
2018-03-31T12:19:37.676Z,25.91
2018-03-31T12:22:04.705Z,24.90
2018-03-31T12:24:31.723Z,23.94
2018-03-31T12:26:58.818Z,24.34
2018-03-31T12:29:26.090Z,24.32
2018-03-31T12:31:53.115Z,24.35
2018-03-31T12:34:20.212Z,23.69
2018-03-31T12:36:47.386Z,24.52
2018-03-31T12:39:14.418Z,24.75
2018-03-31T12:41:41.538Z,24.45
2018-03-31T12:44:08.640Z,24.23
2018-03-31T12:46:35.666Z,25.06
2018-03-31T12:49:02.908Z,24.92
2018-03-31T12:51:29.952Z,24.64
2018-03-31T12:53:57.129Z,25.17
2018-03-31T12:56:24.358Z,24.62
2018-03-31T12:58:51.540Z,24.92
2018-03-31T13:01:18.618Z,24.83
2018-03-31T13:03:45.639Z,25.77
2018-03-31T13:06:12.922Z,25.30
2018-03-31T13:08:39.945Z,25.19
2018-03-31T13:11:06.957Z,24.82
2018-03-31T13:13:34.061Z,25.83
2018-03-31T13:16:01.093Z,26.40
2018-03-31T13:18:28.167Z,26.32
2018-03-31T13:20:55.190Z,26.06
2018-03-31T13:23:22.209Z,26.20
2018-03-31T13:25:49.236Z,26.35
2018-03-31T13:28:16.262Z,26.48
2018-03-31T13:30:43.459Z,27.05
2018-03-31T13:33:10.472Z,27.14
2018-03-31T13:35:37.669Z,27.92
2018-03-31T13:38:04.930Z,27.76
2018-03-31T13:40:31.966Z,27.67
2018-03-31T13:42:58.991Z,27.58
2018-03-31T13:45:26.001Z,26.92
2018-03-31T13:47:53.194Z,27.21
2018-03-31T13:50:20.210Z,27.42
2018-03-31T13:52:47.528Z,26.92
2018-03-31T13:55:14.637Z,27.65
2018-03-31T13:57:41.859Z,27.20
2018-03-31T14:00:09.040Z,27.42
2018-03-31T14:02:36.217Z,27.32
2018-03-31T14:05:03.399Z,26.97
2018-03-31T14:07:30.629Z,27.87
2018-03-31T14:09:57.941Z,27.54
2018-03-31T14:12:25.121Z,27.10
2018-03-31T14:14:52.154Z,27.25
2018-03-31T14:17:19.269Z,27.73
2018-03-31T14:19:46.286Z,28.36
2018-03-31T14:22:13.306Z,28.53
2018-03-31T14:24:40.339Z,29.28
2018-03-31T14:27:07.414Z,29.39
2018-03-31T14:29:34.670Z,30.00
2018-03-31T14:32:01.707Z,29.99
2018-03-31T14:34:28.744Z,30.37
2018-03-31T14:36:55.908Z,29.70
2018-03-31T14:39:22.981Z,30.15
2018-03-31T14:41:49.999Z,30.40
2018-03-31T14:44:17.145Z,29.88
2018-03-31T14:46:44.162Z,30.05
2018-03-31T14:49:11.400Z,31.00
2018-03-31T14:51:38.435Z,30.81
2018-03-31T14:54:05.522Z,31.12
2018-03-31T14:56:32.547Z,31.22
2018-03-31T14:58:59.763Z,32.01
2018-03-31T15:01:26.893Z,31.81
2018-03-31T15:03:53.886Z,32.21
2018-03-31T15:06:20.898Z,32.60
2018-03-31T15:08:47.934Z,32.68
2018-03-31T15:11:15.143Z,32.98
2018-03-31T15:13:42.459Z,33.21
2018-03-31T15:16:09.776Z,33.22
2018-03-31T15:18:37.094Z,33.89
2018-03-31T15:21:04.106Z,33.89
2018-03-31T15:23:31.310Z,34.16
2018-03-31T15:25:58.348Z,34.95
2018-03-31T15:28:25.379Z,35.10
2018-03-31T15:30:52.536Z,35.56
2018-03-31T15:33:19.790Z,36.70
2018-03-31T15:35:47.113Z,37.76
2018-03-31T15:38:14.201Z,38.64
2018-03-31T15:40:41.228Z,39.52
2018-03-31T15:43:09.223Z,39.82
2018-03-31T15:45:36.238Z,40.42
2018-03-31T15:48:03.282Z,41.06
2018-03-31T15:50:30.298Z,41.45
2018-03-31T15:52:57.374Z,42.18
2018-03-31T15:55:24.638Z,42.59
2018-03-31T15:57:51.654Z,43.20
2018-03-31T16:00:18.715Z,43.69
2018-03-31T16:02:45.987Z,44.05
2018-03-31T16:05:13.204Z,44.36
2018-03-31T16:07:40.222Z,44.74
2018-03-31T16:10:07.290Z,45.09
2018-03-31T16:12:34.323Z,45.40
2018-03-31T16:15:01.342Z,45.56
2018-03-31T16:17:28.596Z,45.98
2018-03-31T16:19:55.696Z,46.30
2018-03-31T16:22:22.721Z,46.43
2018-03-31T16:24:49.743Z,46.63
2018-03-31T16:27:17.047Z,46.84
2018-03-31T16:29:44.265Z,47.08
2018-03-31T16:32:11.287Z,47.08
2018-03-31T16:34:38.545Z,47.08
2018-03-31T16:37:05.608Z,47.50
2018-03-31T16:39:32.638Z,47.50
2018-03-31T16:41:59.666Z,47.70
2018-03-31T16:44:26.747Z,47.93
2018-03-31T16:46:53.909Z,48.24
2018-03-31T16:49:20.923Z,48.23
2018-03-31T16:51:47.955Z,48.46
2018-03-31T16:54:15.224Z,48.20
2018-03-31T16:56:42.419Z,48.58
2018-03-31T16:59:09.444Z,48.26
2018-03-31T17:01:36.518Z,48.38
2018-03-31T17:04:03.843Z,48.11
2018-03-31T17:06:30.846Z,48.58
2018-03-31T17:08:57.866Z,48.24
2018-03-31T17:11:25.138Z,48.38
2018-03-31T17:13:52.355Z,48.17
2018-03-31T17:16:19.408Z,48.32
2018-03-31T17:18:46.440Z,48.43
2018-03-31T17:21:13.461Z,48.27
2018-03-31T17:23:40.546Z,48.59
2018-03-31T17:26:07.693Z,48.19
2018-03-31T17:28:34.952Z,48.34
2018-03-31T17:31:01.976Z,48.17
2018-03-31T17:33:29.020Z,48.18
2018-03-31T17:35:56.090Z,48.14
2018-03-31T17:38:23.315Z,47.98
2018-03-31T17:40:50.617Z,48.19
2018-03-31T17:43:17.848Z,48.21
2018-03-31T17:45:44.872Z,48.29
2018-03-31T17:48:11.912Z,48.20
2018-03-31T17:50:39.096Z,48.44
2018-03-31T17:53:06.152Z,48.38
2018-03-31T17:55:33.220Z,48.36
2018-03-31T17:58:00.294Z,48.43
2018-03-31T18:00:27.462Z,48.26
2018-03-31T18:02:54.483Z,48.24
2018-03-31T18:05:21.510Z,47.95
2018-03-31T18:07:48.530Z,47.79
2018-03-31T18:10:15.565Z,48.09
2018-03-31T18:12:42.582Z,47.95
2018-03-31T18:15:09.647Z,47.70
2018-03-31T18:17:36.660Z,47.50
2018-03-31T18:20:03.890Z,47.81
2018-03-31T18:22:30.931Z,47.93
2018-03-31T18:24:57.956Z,47.81
2018-03-31T18:27:25.035Z,47.62
2018-03-31T18:29:52.252Z,47.38
2018-03-31T18:32:19.322Z,47.50
2018-03-31T18:34:46.585Z,47.72
2018-03-31T18:37:13.598Z,47.83
2018-03-31T18:39:40.632Z,47.25
2018-03-31T18:42:07.843Z,47.28
2018-03-31T18:44:35.026Z,47.18
2018-03-31T18:47:02.054Z,47.34
2018-03-31T18:49:29.137Z,47.17
2018-03-31T18:51:56.168Z,47.27
2018-03-31T18:54:23.414Z,47.12
2018-03-31T18:56:50.484Z,47.40
2018-03-31T18:59:17.498Z,47.09
2018-03-31T19:01:44.531Z,47.11
2018-03-31T19:04:11.556Z,47.02
2018-03-31T19:06:38.630Z,47.31
2018-03-31T19:09:05.914Z,47.28
2018-03-31T19:11:32.950Z,47.20
2018-03-31T19:13:59.973Z,47.21
2018-03-31T19:16:32.524Z,46.93
2018-03-31T19:18:59.550Z,46.51
2018-03-31T19:21:26.570Z,45.87
2018-03-31T19:23:53.647Z,45.15
2018-03-31T19:26:20.810Z,44.92
2018-03-31T19:28:47.833Z,44.61
2018-03-31T19:31:14.864Z,44.87
2018-03-31T19:33:42.089Z,44.85
2018-03-31T19:36:14.595Z,44.37
2018-03-31T19:38:41.612Z,44.65
2018-03-31T19:41:08.637Z,45.12
2018-03-31T19:43:35.662Z,45.30
2018-03-31T19:46:02.888Z,45.56
2018-03-31T19:48:29.958Z,45.43
2018-03-31T19:50:57.220Z,45.41
2018-03-31T19:53:24.243Z,45.45
2018-03-31T19:55:51.375Z,45.90
2018-03-31T19:58:18.548Z,46.14
2018-03-31T20:00:45.571Z,46.49
2018-03-31T20:03:12.599Z,46.72
2018-03-31T20:05:39.817Z,46.72
2018-03-31T20:08:06.890Z,47.07
2018-03-31T20:10:33.906Z,47.16
2018-03-31T20:13:01.171Z,47.32
2018-03-31T20:15:28.190Z,47.39
2018-03-31T20:17:55.324Z,47.78
2018-03-31T20:20:22.474Z,47.70
2018-03-31T20:22:49.490Z,47.58
2018-03-31T20:25:16.747Z,48.21
2018-03-31T20:27:43.784Z,48.54
2018-03-31T20:30:10.979Z,48.24
2018-03-31T20:32:38.043Z,48.43
2018-03-31T20:35:05.313Z,48.43
2018-03-31T20:37:32.382Z,48.42
2018-03-31T20:39:59.533Z,48.40
2018-03-31T20:42:26.555Z,48.73
2018-03-31T20:44:53.776Z,49.09
2018-03-31T20:47:20.882Z,49.31
2018-03-31T20:49:48.111Z,48.90
2018-03-31T20:52:15.139Z,49.07
2018-03-31T20:54:42.342Z,48.53
2018-03-31T20:57:09.363Z,48.84
2018-03-31T20:59:36.442Z,48.63
2018-03-31T21:02:03.454Z,47.99
2018-03-31T21:04:30.469Z,48.24
2018-03-31T21:06:57.503Z,48.42
2018-03-31T21:09:24.737Z,48.27
2018-03-31T21:11:51.845Z,48.09
2018-03-31T21:14:18.862Z,48.13
2018-03-31T21:16:46.103Z,48.29
2018-03-31T21:19:13.122Z,48.05
2018-03-31T21:21:40.318Z,47.67
2018-03-31T21:24:07.447Z,47.56
2018-03-31T21:26:34.468Z,47.00
2018-03-31T21:29:01.497Z,46.66
2018-03-31T21:31:28.526Z,46.82
2018-03-31T21:33:55.798Z,46.63
2018-03-31T21:36:23.114Z,46.66
2018-03-31T21:38:50.133Z,46.58
2018-03-31T21:41:17.347Z,46.61
2018-03-31T21:43:44.563Z,46.62
2018-03-31T21:46:11.574Z,46.67
2018-03-31T21:48:38.642Z,46.83
2018-03-31T21:51:05.712Z,46.93
2018-03-31T21:53:32.742Z,47.10
2018-03-31T21:55:59.767Z,47.25
2018-03-31T21:58:26.937Z,47.62
2018-03-31T22:00:54.008Z,47.85
2018-03-31T22:03:21.104Z,48.16
2018-03-31T22:05:48.308Z,48.30
2018-03-31T22:08:15.322Z,48.54
2018-03-31T22:10:42.348Z,48.55
2018-03-31T22:13:14.862Z,48.56
2018-03-31T22:15:47.365Z,48.92
2018-03-31T22:18:14.410Z,48.93
2018-03-31T22:20:41.742Z,48.80
2018-03-31T22:23:08.852Z,49.01
2018-03-31T22:25:36.075Z,49.13
2018-03-31T22:28:03.103Z,48.90
2018-03-31T22:30:30.276Z,48.95
2018-03-31T22:32:57.303Z,49.03
2018-03-31T22:35:24.332Z,49.02
2018-03-31T22:37:51.555Z,49.05
2018-03-31T22:40:18.571Z,48.91
2018-03-31T22:42:45.638Z,48.97
2018-03-31T22:45:12.654Z,49.02
2018-03-31T22:47:39.920Z,48.92
2018-03-31T22:50:06.956Z,48.75
2018-03-31T22:52:33.969Z,48.63
2018-03-31T22:55:01.141Z,48.07
2018-03-31T22:57:28.394Z,48.27
2018-03-31T22:59:55.425Z,47.90
2018-03-31T23:02:22.447Z,47.59
2018-03-31T23:04:49.522Z,47.80
2018-03-31T23:07:16.540Z,47.86
2018-03-31T23:09:43.563Z,48.00
2018-03-31T23:12:10.607Z,48.25
2018-03-31T23:14:37.623Z,48.25
2018-03-31T23:17:04.697Z,47.48
2018-03-31T23:19:31.928Z,47.72
2018-03-31T23:21:58.942Z,47.68
2018-03-31T23:24:25.969Z,47.28
2018-03-31T23:26:52.982Z,47.20
2018-03-31T23:29:20.193Z,47.11
2018-03-31T23:31:47.208Z,46.84
2018-03-31T23:34:14.525Z,46.85
2018-03-31T23:36:41.628Z,46.79
2018-03-31T23:39:08.642Z,46.83
2018-03-31T23:41:35.665Z,47.40
2018-03-31T23:44:02.889Z,47.32
2018-03-31T23:46:30.105Z,47.17
2018-03-31T23:48:57.122Z,47.18
2018-03-31T23:51:24.193Z,47.51
2018-03-31T23:53:51.453Z,48.01
2018-03-31T23:56:18.480Z,47.71
2018-03-31T23:58:45.520Z,47.82
